createdAt,value
2022-11-05T00:00:50.818Z,18.50
2022-11-05T00:01:50.841Z,19.60
2022-11-05T00:02:50.797Z,19.50
2022-11-05T00:03:50.872Z,19.50
2022-11-05T00:04:50.783Z,19.30
2022-11-05T00:05:50.779Z,17.20
2022-11-05T00:06:50.777Z,16.70
2022-11-05T00:07:50.759Z,16.90
2022-11-05T00:08:50.762Z,16.10
2022-11-05T00:09:50.754Z,16.60
2022-11-05T00:10:51.017Z,17.80
2022-11-05T00:11:50.734Z,17.50
2022-11-05T00:12:50.732Z,16.90
2022-11-05T00:13:50.744Z,16.90
2022-11-05T00:14:50.718Z,18.40
2022-11-05T00:15:50.703Z,17.80
2022-11-05T00:16:50.694Z,18.00
2022-11-05T00:17:50.689Z,17.80
2022-11-05T00:18:50.681Z,18.00
2022-11-05T00:19:51.060Z,17.30
2022-11-05T00:20:50.814Z,18.20
2022-11-05T00:21:50.922Z,19.30
2022-11-05T00:22:50.646Z,19.40
2022-11-05T00:23:50.645Z,18.60
2022-11-05T00:24:50.632Z,18.50
2022-11-05T00:25:50.631Z,18.60
2022-11-05T00:26:50.626Z,17.80
2022-11-05T00:27:51.734Z,17.70
2022-11-05T00:28:50.613Z,18.80
2022-11-05T00:29:50.644Z,16.90
2022-11-05T00:30:50.598Z,17.30
2022-11-05T00:31:50.588Z,18.30
2022-11-05T00:32:51.234Z,16.60
2022-11-05T00:33:50.790Z,16.80
2022-11-05T00:34:50.563Z,16.40
2022-11-05T00:35:50.577Z,16.10
2022-11-05T00:36:50.564Z,18.00
2022-11-05T00:37:50.859Z,17.50
2022-11-05T00:38:50.542Z,18.30
2022-11-05T00:39:50.531Z,17.30
2022-11-05T00:40:50.990Z,18.20
2022-11-05T00:41:50.524Z,18.30
2022-11-05T00:42:50.507Z,19.10
2022-11-05T00:43:50.525Z,18.60
2022-11-05T00:44:50.500Z,20.30
2022-11-05T00:45:50.523Z,20.20
2022-11-05T00:46:50.485Z,19.40
2022-11-05T00:47:50.499Z,19.50
2022-11-05T00:48:50.470Z,18.80
2022-11-05T00:49:50.475Z,17.30
2022-11-05T00:50:51.371Z,18.20
2022-11-05T00:51:50.462Z,18.30
2022-11-05T00:52:50.466Z,17.80
2022-11-05T00:53:50.438Z,16.50
2022-11-05T00:54:50.456Z,15.90
2022-11-05T00:55:50.427Z,17.30
2022-11-05T00:56:50.410Z,18.90
2022-11-05T00:57:50.404Z,18.60
2022-11-05T00:58:50.405Z,19.10
2022-11-05T00:59:50.402Z,17.80
2022-11-05T01:00:50.394Z,19.30
2022-11-05T01:01:50.649Z,19.60
2022-11-05T01:02:50.644Z,18.30
2022-11-05T01:03:51.912Z,16.40
2022-11-05T01:04:50.368Z,16.40
2022-11-05T01:05:50.380Z,16.90
2022-11-05T01:06:50.349Z,17.60
2022-11-05T01:07:50.346Z,17.40
2022-11-05T01:08:50.330Z,18.70
2022-11-05T01:09:50.328Z,20.30
2022-11-05T01:10:50.323Z,18.80
2022-11-05T01:11:50.329Z,19.00
2022-11-05T01:12:50.323Z,19.00
2022-11-05T01:13:50.300Z,19.40
2022-11-05T01:14:50.285Z,20.40
2022-11-05T01:15:50.281Z,21.20
2022-11-05T01:16:50.278Z,19.50
2022-11-05T01:17:50.303Z,19.20
2022-11-05T01:18:50.281Z,19.50
2022-11-05T01:19:51.617Z,21.00
2022-11-05T01:20:50.244Z,20.10
2022-11-05T01:21:50.242Z,21.80
2022-11-05T01:22:50.243Z,21.50
2022-11-05T01:23:50.225Z,22.40
2022-11-05T01:24:50.229Z,21.70
2022-11-05T01:25:50.221Z,22.60
2022-11-05T01:26:50.202Z,22.50
2022-11-05T01:27:50.217Z,23.40
2022-11-05T01:28:50.326Z,24.00
2022-11-05T01:29:50.205Z,22.60
2022-11-05T01:30:50.183Z,23.60
2022-11-05T01:31:50.171Z,23.00
2022-11-05T01:32:50.167Z,23.30
2022-11-05T01:33:50.288Z,21.50
2022-11-05T01:34:50.149Z,20.10
2022-11-05T01:35:50.154Z,19.90
2022-11-05T01:36:50.135Z,18.00
2022-11-05T01:37:50.129Z,21.20
2022-11-05T01:38:50.127Z,20.40
2022-11-05T01:39:50.128Z,19.70
2022-11-05T01:40:50.112Z,18.10
2022-11-05T01:41:50.121Z,19.00
2022-11-05T01:42:50.106Z,18.20
2022-11-05T01:43:50.091Z,18.40
2022-11-05T01:44:50.613Z,20.10
2022-11-05T01:45:50.074Z,19.70
2022-11-05T01:46:50.084Z,18.10
2022-11-05T01:47:50.066Z,19.10
2022-11-05T01:48:50.052Z,20.40
2022-11-05T01:49:50.138Z,19.50
2022-11-05T01:50:50.055Z,20.70
2022-11-05T01:51:50.812Z,19.50
2022-11-05T01:52:50.043Z,20.20
2022-11-05T01:53:50.033Z,21.40
2022-11-05T01:54:50.005Z,23.30
2022-11-05T01:55:50.005Z,21.80
2022-11-05T01:56:50.021Z,22.70
2022-11-05T01:57:49.985Z,23.00
2022-11-05T01:58:50.008Z,22.00
2022-11-05T01:59:49.972Z,21.00
2022-11-05T02:00:49.969Z,21.20
2022-11-05T02:01:50.775Z,21.60
2022-11-05T02:02:50.238Z,21.50
2022-11-05T02:03:49.989Z,21.30
2022-11-05T02:04:49.947Z,20.50
2022-11-05T02:05:49.963Z,20.70
2022-11-05T02:06:49.935Z,21.80
2022-11-05T02:07:49.922Z,21.10
2022-11-05T02:08:50.612Z,20.60
2022-11-05T02:09:49.903Z,19.00
2022-11-05T02:10:49.936Z,20.00
2022-11-05T02:11:49.885Z,20.60
2022-11-05T02:12:49.900Z,21.10
2022-11-05T02:13:49.881Z,20.50
2022-11-05T02:14:49.868Z,19.80
2022-11-05T02:15:49.864Z,19.10
2022-11-05T02:16:49.855Z,20.00
2022-11-05T02:17:49.848Z,21.10
2022-11-05T02:18:49.845Z,21.50
2022-11-05T02:19:49.856Z,20.40
2022-11-05T02:20:52.336Z,18.50
2022-11-05T02:21:50.236Z,21.50
2022-11-05T02:22:49.813Z,20.80
2022-11-05T02:23:49.808Z,21.30
2022-11-05T02:24:49.803Z,21.30
2022-11-05T02:25:49.797Z,21.40
2022-11-05T02:26:49.779Z,21.10
2022-11-05T02:27:49.798Z,22.40
2022-11-05T02:28:49.781Z,22.40
2022-11-05T02:29:49.760Z,20.50
2022-11-05T02:30:49.760Z,18.80
2022-11-05T02:31:49.749Z,18.50
2022-11-05T02:32:49.740Z,20.10
2022-11-05T02:33:49.750Z,19.30
2022-11-05T02:34:49.727Z,19.10
2022-11-05T02:35:50.300Z,19.30
2022-11-05T02:36:49.722Z,20.50
2022-11-05T02:37:49.730Z,19.90
2022-11-05T02:38:49.694Z,18.40
2022-11-05T02:39:49.695Z,18.30
2022-11-05T02:40:49.686Z,18.10
2022-11-05T02:41:49.676Z,18.80
2022-11-05T02:42:49.673Z,19.30
2022-11-05T02:43:49.670Z,19.80
2022-11-05T02:44:49.669Z,19.80
2022-11-05T02:45:49.649Z,19.70
2022-11-05T02:46:49.651Z,18.50
2022-11-05T02:47:50.178Z,19.90
2022-11-05T02:48:49.626Z,20.80
2022-11-05T02:49:50.293Z,20.60
2022-11-05T02:50:49.644Z,19.00
2022-11-05T02:51:49.619Z,20.20
2022-11-05T02:52:49.611Z,21.20
2022-11-05T02:53:49.616Z,20.50
2022-11-05T02:54:49.594Z,19.00
2022-11-05T02:55:49.614Z,19.40
2022-11-05T02:56:49.596Z,20.50
2022-11-05T02:57:49.565Z,20.20
2022-11-05T02:58:49.551Z,19.80
2022-11-05T02:59:50.828Z,19.20
2022-11-05T03:00:49.538Z,19.50
2022-11-05T03:01:49.694Z,20.40
2022-11-05T03:02:49.730Z,18.70
2022-11-05T03:03:49.521Z,19.60
2022-11-05T03:04:49.517Z,20.30
2022-11-05T03:05:49.508Z,22.10
2022-11-05T03:06:49.556Z,19.40
2022-11-05T03:07:49.490Z,17.80
2022-11-05T03:08:49.488Z,19.20
2022-11-05T03:09:49.745Z,19.10
2022-11-05T03:10:50.649Z,18.00
2022-11-05T03:11:49.464Z,18.40
2022-11-05T03:12:49.455Z,21.30
2022-11-05T03:13:49.444Z,21.00
2022-11-05T03:14:50.106Z,18.90
2022-11-05T03:15:49.861Z,18.80
2022-11-05T03:16:49.434Z,20.00
2022-11-05T03:17:49.432Z,20.00
2022-11-05T03:18:49.416Z,21.70
2022-11-05T03:19:49.413Z,23.90
2022-11-05T03:20:49.853Z,23.30
2022-11-05T03:21:49.391Z,22.90
2022-11-05T03:22:49.398Z,23.10
2022-11-05T03:23:49.387Z,21.70
2022-11-05T03:24:49.374Z,23.30
2022-11-05T03:25:49.387Z,22.00
2022-11-05T03:26:49.373Z,22.30
2022-11-05T03:27:49.351Z,20.80
2022-11-05T03:28:49.353Z,21.20
2022-11-05T03:29:49.338Z,20.70
2022-11-05T03:30:49.331Z,21.50
2022-11-05T03:31:49.334Z,21.20
2022-11-05T03:32:49.322Z,20.50
2022-11-05T03:33:49.335Z,19.70
2022-11-05T03:34:49.302Z,18.90
2022-11-05T03:35:49.304Z,18.80
2022-11-05T03:36:49.292Z,18.30
2022-11-05T03:37:49.284Z,18.10
2022-11-05T03:38:49.780Z,18.70
2022-11-05T03:39:49.270Z,18.30
2022-11-05T03:40:49.260Z,19.60
2022-11-05T03:41:49.287Z,18.90
2022-11-05T03:42:49.248Z,18.70
2022-11-05T03:43:49.652Z,19.60
2022-11-05T03:44:49.237Z,20.60
2022-11-05T03:45:49.223Z,19.40
2022-11-05T03:46:49.233Z,18.40
2022-11-05T03:47:49.632Z,19.20
2022-11-05T03:48:49.289Z,20.00
2022-11-05T03:49:49.204Z,18.30
2022-11-05T03:50:49.184Z,19.50
2022-11-05T03:51:49.187Z,20.90
2022-11-05T03:52:49.179Z,18.40
2022-11-05T03:53:49.819Z,17.80
2022-11-05T03:54:49.158Z,21.10
2022-11-05T03:55:49.159Z,20.60
2022-11-05T03:56:49.159Z,21.10
2022-11-05T03:57:49.161Z,21.60
2022-11-05T03:58:50.032Z,23.30
2022-11-05T03:59:49.141Z,21.80
2022-11-05T04:00:49.112Z,21.80
2022-11-05T04:01:49.293Z,19.80
2022-11-05T04:02:49.272Z,20.70
2022-11-05T04:03:49.101Z,21.10
2022-11-05T04:04:49.096Z,21.20
2022-11-05T04:05:49.080Z,21.30
2022-11-05T04:06:49.629Z,21.80
2022-11-05T04:07:49.064Z,22.20
2022-11-05T04:08:49.059Z,23.10
2022-11-05T04:09:49.064Z,21.50
2022-11-05T04:10:49.085Z,23.50
2022-11-05T04:11:49.687Z,22.50
2022-11-05T04:12:49.032Z,22.10
2022-11-05T04:13:49.053Z,23.70
2022-11-05T04:14:49.014Z,23.10
2022-11-05T04:15:49.032Z,23.80
2022-11-05T04:16:49.003Z,24.20
2022-11-05T04:17:48.993Z,26.10
2022-11-05T04:18:48.991Z,25.40
2022-11-05T04:19:48.988Z,25.40
2022-11-05T04:20:48.969Z,24.10
2022-11-05T04:21:48.982Z,25.70
2022-11-05T04:22:48.960Z,26.30
2022-11-05T04:23:48.955Z,25.60
2022-11-05T04:24:48.949Z,25.20
2022-11-05T04:25:48.987Z,24.80
2022-11-05T04:26:48.943Z,24.30
2022-11-05T04:27:48.924Z,23.10
2022-11-05T04:28:48.922Z,24.20
2022-11-05T04:29:49.107Z,25.20
2022-11-05T04:30:48.910Z,22.70
2022-11-05T04:31:48.921Z,21.70
2022-11-05T04:32:48.888Z,24.90
2022-11-05T04:33:48.888Z,24.00
2022-11-05T04:34:48.871Z,22.60
2022-11-05T04:35:48.873Z,24.50
2022-11-05T04:36:48.866Z,24.70
2022-11-05T04:37:48.855Z,24.30
2022-11-05T04:38:48.857Z,24.00
2022-11-05T04:39:48.835Z,22.70
2022-11-05T04:40:48.829Z,21.30
2022-11-05T04:41:48.965Z,21.50
2022-11-05T04:42:48.830Z,22.00
2022-11-05T04:43:48.815Z,23.30
2022-11-05T04:44:48.808Z,23.60
2022-11-05T04:45:48.825Z,24.20
2022-11-05T04:46:48.792Z,23.20
2022-11-05T04:47:49.201Z,23.40
2022-11-05T04:48:48.778Z,23.80
2022-11-05T04:49:48.777Z,21.20
2022-11-05T04:50:48.761Z,21.30
2022-11-05T04:51:48.762Z,21.40
2022-11-05T04:52:48.749Z,22.00
2022-11-05T04:53:48.743Z,23.20
2022-11-05T04:54:48.737Z,23.50
2022-11-05T04:55:48.724Z,22.90
2022-11-05T04:56:48.715Z,22.70
2022-11-05T04:57:48.720Z,23.70
2022-11-05T04:58:48.724Z,23.70
2022-11-05T04:59:48.704Z,24.80
2022-11-05T05:00:48.893Z,24.00
2022-11-05T05:01:48.771Z,24.20
2022-11-05T05:02:48.679Z,26.20
2022-11-05T05:03:48.670Z,22.70
2022-11-05T05:04:48.673Z,25.40
2022-11-05T05:05:48.682Z,22.60
2022-11-05T05:06:49.644Z,22.60
2022-11-05T05:07:48.644Z,22.70
2022-11-05T05:08:48.632Z,22.00
2022-11-05T05:09:48.634Z,22.10
2022-11-05T05:10:48.619Z,21.40
2022-11-05T05:11:49.216Z,22.30
2022-11-05T05:12:48.614Z,22.30
2022-11-05T05:13:48.602Z,21.80
2022-11-05T05:14:48.609Z,21.20
2022-11-05T05:15:49.474Z,20.90
2022-11-05T05:16:48.586Z,21.20
2022-11-05T05:17:48.597Z,20.30
2022-11-05T05:18:48.575Z,20.60
2022-11-05T05:19:48.561Z,20.90
2022-11-05T05:20:48.561Z,20.90
2022-11-05T05:21:48.579Z,22.50
2022-11-05T05:22:48.540Z,23.70
2022-11-05T05:23:48.556Z,21.90
2022-11-05T05:24:52.584Z,21.80
2022-11-05T05:25:48.522Z,22.10
2022-11-05T05:26:48.542Z,23.00
2022-11-05T05:27:48.513Z,22.40
2022-11-05T05:28:49.229Z,24.30
2022-11-05T05:29:48.504Z,24.20
2022-11-05T05:30:48.494Z,22.90
2022-11-05T05:31:48.495Z,26.00
2022-11-05T05:32:48.473Z,26.00
2022-11-05T05:33:48.498Z,25.10
2022-11-05T05:34:48.465Z,24.80
2022-11-05T05:35:48.459Z,24.90
2022-11-05T05:36:48.450Z,25.80
2022-11-05T05:37:48.451Z,26.10
2022-11-05T05:38:48.455Z,28.30
2022-11-05T05:39:48.426Z,28.90
2022-11-05T05:40:48.424Z,29.30
2022-11-05T05:41:48.423Z,27.90
2022-11-05T05:42:49.150Z,30.50
2022-11-05T05:43:48.410Z,30.80
2022-11-05T05:44:48.433Z,29.40
2022-11-05T05:45:48.396Z,28.80
2022-11-05T05:46:48.385Z,26.90
2022-11-05T05:47:48.376Z,29.20
2022-11-05T05:48:48.372Z,29.70
2022-11-05T05:49:48.402Z,28.90
2022-11-05T05:50:48.361Z,28.40
2022-11-05T05:51:48.357Z,29.30
2022-11-05T05:52:48.360Z,29.90
2022-11-05T05:53:48.339Z,30.50
2022-11-05T05:54:48.369Z,29.50
2022-11-05T05:55:48.331Z,25.40
2022-11-05T05:56:48.312Z,26.60
2022-11-05T05:57:48.413Z,27.60
2022-11-05T05:58:48.299Z,27.20
2022-11-05T05:59:48.302Z,25.40
2022-11-05T06:00:48.302Z,27.20
2022-11-05T06:01:48.427Z,29.40
2022-11-05T06:02:48.409Z,27.20
2022-11-05T06:03:48.328Z,30.80
2022-11-05T06:04:48.277Z,30.30
2022-11-05T06:05:48.369Z,32.90
2022-11-05T06:06:48.292Z,32.90
2022-11-05T06:07:48.278Z,36.50
2022-11-05T06:08:48.230Z,31.70
2022-11-05T06:09:48.232Z,31.30
2022-11-05T06:10:48.859Z,29.80
2022-11-05T06:11:48.219Z,30.10
2022-11-05T06:12:48.263Z,32.80
2022-11-05T06:13:48.219Z,31.60
2022-11-05T06:14:48.301Z,37.50
2022-11-05T06:15:48.216Z,31.30
2022-11-05T06:16:48.176Z,33.10
2022-11-05T06:17:51.705Z,34.10
2022-11-05T06:18:48.176Z,33.60
2022-11-05T06:19:48.162Z,32.70
2022-11-05T06:20:48.156Z,34.60
2022-11-05T06:21:48.292Z,30.00
2022-11-05T06:22:48.167Z,32.20
2022-11-05T06:23:48.165Z,31.50
2022-11-05T06:24:48.134Z,33.90
2022-11-05T06:25:48.131Z,35.80
2022-11-05T06:26:48.120Z,30.80
2022-11-05T06:27:48.185Z,32.00
2022-11-05T06:28:48.124Z,34.90
2022-11-05T06:29:48.094Z,32.10
2022-11-05T06:30:48.099Z,33.00
2022-11-05T06:31:48.125Z,32.40
2022-11-05T06:32:48.082Z,35.10
2022-11-05T06:33:48.077Z,31.30
2022-11-05T06:34:48.065Z,33.50
2022-11-05T06:35:48.056Z,33.30
2022-11-05T06:36:48.043Z,36.10
2022-11-05T06:37:48.185Z,38.30
2022-11-05T06:38:48.035Z,37.10
2022-11-05T06:39:48.051Z,39.10
2022-11-05T06:40:48.038Z,40.10
2022-11-05T06:42:16.511Z,38.40
2022-11-05T06:42:49.016Z,35.80
2022-11-05T06:43:48.011Z,34.80
2022-11-05T06:44:48.008Z,34.60
2022-11-05T06:45:47.996Z,33.10
2022-11-05T06:46:48.761Z,37.60
2022-11-05T06:47:47.969Z,34.70
2022-11-05T06:48:47.990Z,32.50
2022-11-05T06:49:48.133Z,31.00
2022-11-05T06:50:48.356Z,28.50
2022-11-05T06:51:48.895Z,31.00
2022-11-05T06:52:47.944Z,30.80
2022-11-05T06:53:47.955Z,33.30
2022-11-05T06:54:47.934Z,33.90
2022-11-05T06:55:47.937Z,34.30
2022-11-05T06:56:47.913Z,33.00
2022-11-05T06:57:47.917Z,31.90
2022-11-05T06:58:47.898Z,32.80
2022-11-05T06:59:47.910Z,31.70
2022-11-05T07:00:48.733Z,31.00
2022-11-05T07:01:48.528Z,32.40
2022-11-05T07:02:47.905Z,33.00
2022-11-05T07:03:47.884Z,32.70
2022-11-05T07:04:47.865Z,31.10
2022-11-05T07:05:47.877Z,30.70
2022-11-05T07:06:47.871Z,29.00
2022-11-05T07:07:47.876Z,30.70
2022-11-05T07:08:47.835Z,31.90
2022-11-05T07:09:47.862Z,29.70
2022-11-05T07:10:47.825Z,30.40
2022-11-05T07:11:47.816Z,33.50
2022-11-05T07:12:47.817Z,30.40
2022-11-05T07:13:47.824Z,30.30
2022-11-05T07:14:47.804Z,25.70
2022-11-05T07:15:47.799Z,26.10
2022-11-05T07:16:47.786Z,26.70
2022-11-05T07:17:47.834Z,22.60
2022-11-05T07:18:47.799Z,24.90
2022-11-05T07:19:47.768Z,28.30
2022-11-05T07:20:47.770Z,27.60
2022-11-05T07:21:47.757Z,29.20
2022-11-05T07:22:47.744Z,31.10
2022-11-05T07:23:47.774Z,30.80
2022-11-05T07:24:47.739Z,27.90
2022-11-05T07:25:47.752Z,31.80
2022-11-05T07:26:47.724Z,28.70
2022-11-05T07:27:47.723Z,29.80
2022-11-05T07:28:48.134Z,30.30
2022-11-05T07:29:47.705Z,33.10
2022-11-05T07:30:48.220Z,29.50
2022-11-05T07:31:47.700Z,29.60
2022-11-05T07:32:47.687Z,31.90
2022-11-05T07:33:47.685Z,29.80
2022-11-05T07:34:47.673Z,27.60
2022-11-05T07:35:47.666Z,26.40
2022-11-05T07:36:47.671Z,25.40
2022-11-05T07:37:47.685Z,24.70
2022-11-05T07:38:47.650Z,23.40
2022-11-05T07:39:47.643Z,25.60
2022-11-05T07:40:47.648Z,21.80
2022-11-05T07:41:47.651Z,21.30
2022-11-05T07:42:48.196Z,19.50
2022-11-05T07:43:47.605Z,20.40
2022-11-05T07:44:47.615Z,18.20
2022-11-05T07:45:47.587Z,21.40
2022-11-05T07:46:47.583Z,20.00
2022-11-05T07:47:47.649Z,21.30
2022-11-05T07:48:47.562Z,18.10
2022-11-05T07:49:47.566Z,18.70
2022-11-05T07:50:47.550Z,16.90
2022-11-05T07:51:47.544Z,19.70
2022-11-05T07:52:47.547Z,17.30
2022-11-05T07:53:47.545Z,15.20
2022-11-05T07:54:47.531Z,15.10
2022-11-05T07:55:47.526Z,13.70
2022-11-05T07:56:47.507Z,13.70
2022-11-05T07:57:47.645Z,13.40
2022-11-05T07:58:47.495Z,11.90
2022-11-05T07:59:47.490Z,10.70
2022-11-05T08:00:47.629Z,11.80
2022-11-05T08:01:47.686Z,12.30
2022-11-05T08:02:47.741Z,12.80
2022-11-05T08:03:47.657Z,11.10
2022-11-05T08:04:47.451Z,11.90
2022-11-05T08:05:47.457Z,12.80
2022-11-05T08:06:47.452Z,11.70
2022-11-05T08:07:47.433Z,11.80
2022-11-05T08:08:47.432Z,11.40
2022-11-05T08:09:47.426Z,10.90
2022-11-05T08:10:47.410Z,11.30
2022-11-05T08:11:47.405Z,10.50
2022-11-05T08:12:48.086Z,10.90
2022-11-05T08:13:47.429Z,11.10
2022-11-05T08:14:47.397Z,10.60
2022-11-05T08:15:47.383Z,10.30
2022-11-05T08:16:47.365Z,15.10
2022-11-05T08:17:47.755Z,14.10
2022-11-05T08:18:47.350Z,10.80
2022-11-05T08:19:47.347Z,10.40
2022-11-05T08:20:47.369Z,11.20
2022-11-05T08:21:47.330Z,10.00
2022-11-05T08:22:47.326Z,10.10
2022-11-05T08:23:47.334Z,10.10
2022-11-05T08:24:47.304Z,10.00
2022-11-05T08:25:47.324Z,9.50
2022-11-05T08:26:47.310Z,9.00
2022-11-05T08:27:47.294Z,10.30
2022-11-05T08:28:47.309Z,10.40
2022-11-05T08:29:47.304Z,9.90
2022-11-05T08:30:47.266Z,8.60
2022-11-05T08:31:47.260Z,9.30
2022-11-05T08:32:47.253Z,8.80
2022-11-05T08:33:47.254Z,10.20
2022-11-05T08:34:47.254Z,12.10
2022-11-05T08:35:47.237Z,11.00
2022-11-05T08:36:48.935Z,9.30
2022-11-05T08:37:47.222Z,9.90
2022-11-05T08:38:47.209Z,10.00
2022-11-05T08:39:47.201Z,10.20
2022-11-05T08:40:47.202Z,8.90
2022-11-05T08:41:47.213Z,8.20
2022-11-05T08:42:47.174Z,9.40
2022-11-05T08:43:47.240Z,8.20
2022-11-05T08:44:47.191Z,8.00
2022-11-05T08:45:47.193Z,9.00
2022-11-05T08:46:47.320Z,8.10
2022-11-05T08:47:47.246Z,7.20
2022-11-05T08:48:47.136Z,6.70
2022-11-05T08:49:47.137Z,6.40
2022-11-05T08:50:47.130Z,6.80
2022-11-05T08:51:47.114Z,6.60
2022-11-05T08:52:48.018Z,6.40
2022-11-05T08:53:47.118Z,6.50
2022-11-05T08:54:47.101Z,6.90
2022-11-05T08:55:47.143Z,7.20
2022-11-05T08:56:48.079Z,6.50
2022-11-05T08:57:47.083Z,6.00
2022-11-05T08:58:47.069Z,6.30
2022-11-05T08:59:47.060Z,6.50
2022-11-05T09:00:47.107Z,6.90
2022-11-05T09:01:48.330Z,7.20
2022-11-05T09:02:47.042Z,6.60
2022-11-05T09:03:47.034Z,5.40
2022-11-05T09:04:47.732Z,5.80
2022-11-05T09:05:47.055Z,5.70
2022-11-05T09:06:47.023Z,5.50
2022-11-05T09:07:47.020Z,5.20
2022-11-05T09:08:47.044Z,5.00
2022-11-05T09:09:47.012Z,4.80
2022-11-05T09:10:47.044Z,4.60
2022-11-05T09:12:10.650Z,4.60
2022-11-05T09:12:47.963Z,5.10
2022-11-05T09:13:46.998Z,4.80
2022-11-05T09:14:46.964Z,5.70
2022-11-05T09:15:47.044Z,6.00
2022-11-05T09:16:46.999Z,4.30
2022-11-05T09:17:47.071Z,4.20
2022-11-05T09:18:46.924Z,4.40
2022-11-05T09:19:46.979Z,4.80
2022-11-05T09:20:46.920Z,5.30
2022-11-05T09:21:46.916Z,5.10
2022-11-05T09:22:47.151Z,6.00
2022-11-05T09:23:46.919Z,4.80
2022-11-05T09:24:46.903Z,5.10
2022-11-05T09:25:46.905Z,5.80
2022-11-05T09:26:46.865Z,5.30
2022-11-05T09:27:46.860Z,5.90
2022-11-05T09:28:46.870Z,5.60
2022-11-05T09:29:46.850Z,6.00
2022-11-05T09:30:46.889Z,5.80
2022-11-05T09:31:46.844Z,6.20
2022-11-05T09:32:46.858Z,6.20
2022-11-05T09:33:47.034Z,5.60
2022-11-05T09:34:46.838Z,5.70
2022-11-05T09:35:46.811Z,5.40
2022-11-05T09:36:46.869Z,5.20
2022-11-05T09:37:46.800Z,5.20
2022-11-05T09:38:47.532Z,5.40
2022-11-05T09:39:47.305Z,5.10
2022-11-05T09:40:46.785Z,5.10
2022-11-05T09:41:46.785Z,5.00
2022-11-05T09:42:46.775Z,5.10
2022-11-05T09:43:46.753Z,4.70
2022-11-05T09:44:49.539Z,4.40
2022-11-05T09:45:46.782Z,5.30
2022-11-05T09:46:46.734Z,5.00
2022-11-05T09:47:46.740Z,4.80
2022-11-05T09:48:46.727Z,4.60
2022-11-05T09:49:46.737Z,4.60
2022-11-05T09:50:46.712Z,4.50
2022-11-05T09:51:46.708Z,5.00
2022-11-05T09:52:46.695Z,4.80
2022-11-05T09:53:46.691Z,4.70
2022-11-05T09:54:46.684Z,4.80
2022-11-05T09:55:47.109Z,4.40
2022-11-05T09:56:46.667Z,4.60
2022-11-05T09:57:46.652Z,5.50
2022-11-05T09:58:46.654Z,5.50
2022-11-05T09:59:46.647Z,5.70
2022-11-05T10:00:46.669Z,5.00
2022-11-05T10:01:46.752Z,4.10
2022-11-05T10:02:46.627Z,4.60
2022-11-05T10:03:46.605Z,4.60
2022-11-05T10:04:46.605Z,4.70
2022-11-05T10:05:47.607Z,4.30
2022-11-05T10:06:46.586Z,5.20
2022-11-05T10:07:46.590Z,3.90
2022-11-05T10:08:46.638Z,4.40
2022-11-05T10:09:46.568Z,4.70
2022-11-05T10:10:46.563Z,3.70
2022-11-05T10:11:47.088Z,3.60
2022-11-05T10:12:46.576Z,3.90
2022-11-05T10:13:46.539Z,3.80
2022-11-05T10:14:46.543Z,3.90
2022-11-05T10:15:46.531Z,4.20
2022-11-05T10:16:46.519Z,4.50
2022-11-05T10:17:46.506Z,3.90
2022-11-05T10:18:46.496Z,4.30
2022-11-05T10:19:46.493Z,4.30
2022-11-05T10:20:46.530Z,4.20
2022-11-05T10:22:49.615Z,3.70
2022-11-05T10:23:46.496Z,3.80
2022-11-05T10:24:46.504Z,4.60
2022-11-05T10:25:46.454Z,4.50
2022-11-05T10:26:47.422Z,3.60
2022-11-05T10:27:46.453Z,3.80
2022-11-05T10:28:46.419Z,3.00
2022-11-05T10:29:46.441Z,3.60
2022-11-05T10:30:46.413Z,3.70
2022-11-05T10:31:46.397Z,3.90
2022-11-05T10:32:46.404Z,2.90
2022-11-05T10:33:47.352Z,3.30
2022-11-05T10:34:46.439Z,3.30
2022-11-05T10:35:46.384Z,2.70
2022-11-05T10:36:46.381Z,2.70
2022-11-05T10:37:46.381Z,2.40
2022-11-05T10:38:46.353Z,3.30
2022-11-05T10:39:46.354Z,2.30
2022-11-05T10:40:46.339Z,2.80
2022-11-05T10:41:46.333Z,2.60
2022-11-05T10:42:46.333Z,2.50
2022-11-05T10:43:46.340Z,2.30
2022-11-05T10:44:46.340Z,2.30
2022-11-05T10:45:46.317Z,2.40
2022-11-05T10:46:46.346Z,2.50
2022-11-05T10:47:46.294Z,2.60
2022-11-05T10:48:46.293Z,2.50
2022-11-05T10:49:46.408Z,2.50
2022-11-05T10:50:46.270Z,2.70
2022-11-05T10:51:46.284Z,2.50
2022-11-05T10:52:46.263Z,2.60
2022-11-05T10:53:46.312Z,2.20
2022-11-05T10:54:46.266Z,3.10
2022-11-05T10:55:46.237Z,2.30
2022-11-05T10:56:46.217Z,2.20
2022-11-05T10:57:46.227Z,2.30
2022-11-05T10:58:46.228Z,2.10
2022-11-05T10:59:46.204Z,3.20
2022-11-05T11:00:46.287Z,2.20
2022-11-05T11:01:46.279Z,2.20
2022-11-05T11:02:46.172Z,2.60
2022-11-05T11:03:46.167Z,2.50
2022-11-05T11:04:46.212Z,2.40
2022-11-05T11:05:46.161Z,2.60
2022-11-05T11:06:46.153Z,2.40
2022-11-05T11:07:46.145Z,2.50
2022-11-05T11:08:46.130Z,2.80
2022-11-05T11:09:46.613Z,2.20
2022-11-05T11:10:46.115Z,2.30
2022-11-05T11:11:46.109Z,2.50
2022-11-05T11:12:46.106Z,2.30
2022-11-05T11:13:46.156Z,2.30
2022-11-05T11:14:46.108Z,2.30
2022-11-05T11:15:46.085Z,2.30
2022-11-05T11:16:46.082Z,2.40
2022-11-05T11:17:46.203Z,2.30
2022-11-05T11:18:46.082Z,2.90
2022-11-05T11:19:46.075Z,2.70
2022-11-05T11:20:46.044Z,2.70
2022-11-05T11:21:46.054Z,2.30
2022-11-05T11:22:46.066Z,2.30
2022-11-05T11:23:46.099Z,2.30
2022-11-05T11:24:46.035Z,2.20
2022-11-05T11:25:46.043Z,2.10
2022-11-05T11:26:46.014Z,1.80
2022-11-05T11:27:46.005Z,2.10
2022-11-05T11:28:46.805Z,2.20
2022-11-05T11:29:49.382Z,2.80
2022-11-05T11:30:45.979Z,2.50
2022-11-05T11:31:45.978Z,2.60
2022-11-05T11:32:45.970Z,2.80
2022-11-05T11:33:46.000Z,2.90
2022-11-05T11:34:45.948Z,2.60
2022-11-05T11:35:45.953Z,2.30
2022-11-05T11:36:45.925Z,2.80
2022-11-05T11:37:45.927Z,2.30
2022-11-05T11:38:45.964Z,2.50
2022-11-05T11:39:45.911Z,2.70
2022-11-05T11:40:45.917Z,2.50
2022-11-05T11:41:45.927Z,2.30
2022-11-05T11:42:45.904Z,2.60
2022-11-05T11:43:45.887Z,2.40
2022-11-05T11:44:45.912Z,2.60
2022-11-05T11:45:45.909Z,2.30
2022-11-05T11:46:45.892Z,2.40
2022-11-05T11:47:45.853Z,2.30
2022-11-05T11:48:45.835Z,2.70
2022-11-05T11:49:45.864Z,2.80
2022-11-05T11:50:45.827Z,2.50
2022-11-05T11:51:49.954Z,2.50
2022-11-05T11:52:45.850Z,2.40
2022-11-05T11:53:45.810Z,2.20
2022-11-05T11:54:45.799Z,2.20
2022-11-05T11:55:46.270Z,2.10
2022-11-05T11:56:46.029Z,2.00
2022-11-05T11:57:45.809Z,2.30
2022-11-05T11:58:45.772Z,2.10
2022-11-05T12:00:07.723Z,2.00
2022-11-05T12:00:46.764Z,2.20
2022-11-05T12:01:45.808Z,1.80
2022-11-05T12:02:46.319Z,1.80
2022-11-05T12:03:45.743Z,2.30
2022-11-05T12:04:45.749Z,2.10
2022-11-05T12:05:45.723Z,2.00
2022-11-05T12:06:45.738Z,2.00
2022-11-05T12:07:47.076Z,2.10
2022-11-05T12:08:52.246Z,2.20
2022-11-05T12:09:46.689Z,1.90
2022-11-05T12:10:45.704Z,2.00
2022-11-05T12:11:45.679Z,2.10
2022-11-05T12:12:45.855Z,1.80
2022-11-05T12:13:45.688Z,1.90
2022-11-05T12:14:46.758Z,1.80
2022-11-05T12:15:45.658Z,1.90
2022-11-05T12:16:45.636Z,1.80
2022-11-05T12:17:45.628Z,1.90
2022-11-05T12:18:45.629Z,1.90
2022-11-05T12:19:46.160Z,1.90
2022-11-05T12:20:48.264Z,1.90
2022-11-05T12:21:53.015Z,1.90
2022-11-05T12:22:46.596Z,1.90
2022-11-05T12:23:45.621Z,1.80
2022-11-05T12:24:45.585Z,2.50
2022-11-05T12:25:45.577Z,1.80
2022-11-05T12:26:45.571Z,2.00
2022-11-05T12:27:45.566Z,1.70
2022-11-05T12:29:12.166Z,1.90
2022-11-05T12:29:46.567Z,2.30
2022-11-05T12:30:45.545Z,2.30
2022-11-05T12:31:45.563Z,2.40
2022-11-05T12:32:45.607Z,2.30
2022-11-05T12:33:45.523Z,2.40
2022-11-05T12:34:45.579Z,3.20
2022-11-05T12:35:48.195Z,2.60
2022-11-05T12:36:46.500Z,3.10
2022-11-05T12:37:45.484Z,2.60
2022-11-05T12:38:45.481Z,2.90
2022-11-05T12:39:45.516Z,2.60
2022-11-05T12:40:45.463Z,2.50
2022-11-05T12:41:45.485Z,3.30
2022-11-05T12:42:45.459Z,3.10
2022-11-05T12:43:45.472Z,2.60
2022-11-05T12:44:45.442Z,3.10
2022-11-05T12:45:45.475Z,3.00
2022-11-05T12:46:45.419Z,2.70
2022-11-05T12:47:45.418Z,3.00
2022-11-05T12:48:45.414Z,2.80
2022-11-05T12:49:45.401Z,3.30
2022-11-05T12:50:45.399Z,3.20
2022-11-05T12:51:45.424Z,3.20
2022-11-05T12:52:45.419Z,3.20
2022-11-05T12:53:45.377Z,3.10
2022-11-05T12:54:45.371Z,3.30
2022-11-05T12:55:48.546Z,3.60
2022-11-05T12:56:45.353Z,2.80
2022-11-05T12:57:45.353Z,3.60
2022-11-05T12:58:45.327Z,3.00
2022-11-05T12:59:45.883Z,2.90
2022-11-05T13:00:45.313Z,2.70
2022-11-05T13:01:45.531Z,3.10
2022-11-05T13:02:45.310Z,2.70